sensor_id;sensor_type;location;lat;lon;timestamp;P1;durP1;ratioP1;P2;durP2;ratioP2
71959;SDS011;59832;51.146;14.024;2023-08-07T00:01:52;4.55;;;4.10;;
71959;SDS011;59832;51.146;14.024;2023-08-07T00:04:20;4.38;;;4.07;;
71959;SDS011;59832;51.146;14.024;2023-08-07T00:06:46;4.70;;;4.30;;
71959;SDS011;59832;51.146;14.024;2023-08-07T00:09:13;4.30;;;4.00;;
71959;SDS011;59832;51.146;14.024;2023-08-07T00:11:39;4.65;;;4.32;;
71959;SDS011;59832;51.146;14.024;2023-08-07T00:14:06;6.27;;;4.73;;
71959;SDS011;59832;51.146;14.024;2023-08-07T00:16:32;4.87;;;4.57;;
71959;SDS011;59832;51.146;14.024;2023-08-07T00:18:59;4.50;;;4.20;;
71959;SDS011;59832;51.146;14.024;2023-08-07T00:21:25;4.57;;;4.17;;
71959;SDS011;59832;51.146;14.024;2023-08-07T00:23:52;4.50;;;4.10;;
71959;SDS011;59832;51.146;14.024;2023-08-07T00:26:18;4.57;;;4.20;;
71959;SDS011;59832;51.146;14.024;2023-08-07T00:28:45;4.65;;;4.25;;
71959;SDS011;59832;51.146;14.024;2023-08-07T00:31:11;4.37;;;4.03;;
71959;SDS011;59832;51.146;14.024;2023-08-07T00:36:05;5.10;;;4.70;;
71959;SDS011;59832;51.146;14.024;2023-08-07T00:38:31;5.00;;;4.50;;
71959;SDS011;59832;51.146;14.024;2023-08-07T00:40:58;4.60;;;4.22;;
71959;SDS011;59832;51.146;14.024;2023-08-07T00:43:26;4.93;;;4.50;;
71959;SDS011;59832;51.146;14.024;2023-08-07T00:45:52;5.27;;;4.87;;
71959;SDS011;59832;51.146;14.024;2023-08-07T00:48:19;5.03;;;4.63;;
71959;SDS011;59832;51.146;14.024;2023-08-07T00:50:46;5.23;;;4.93;;
71959;SDS011;59832;51.146;14.024;2023-08-07T00:53:14;5.38;;;4.70;;
71959;SDS011;59832;51.146;14.024;2023-08-07T00:55:41;5.32;;;4.60;;
71959;SDS011;59832;51.146;14.024;2023-08-07T00:58:08;5.18;;;4.88;;
71959;SDS011;59832;51.146;14.024;2023-08-07T01:00:35;5.13;;;4.80;;
71959;SDS011;59832;51.146;14.024;2023-08-07T01:03:04;4.95;;;4.55;;
71959;SDS011;59832;51.146;14.024;2023-08-07T01:05:32;5.32;;;4.93;;
71959;SDS011;59832;51.146;14.024;2023-08-07T01:07:58;5.70;;;5.17;;
71959;SDS011;59832;51.146;14.024;2023-08-07T01:13:40;5.00;;;4.60;;
71959;SDS011;59832;51.146;14.024;2023-08-07T01:18:44;4.45;;;4.00;;
71959;SDS011;59832;51.146;14.024;2023-08-07T01:21:18;4.80;;;4.50;;
71959;SDS011;59832;51.146;14.024;2023-08-07T01:23:48;5.30;;;5.00;;
71959;SDS011;59832;51.146;14.024;2023-08-07T01:26:15;5.03;;;4.70;;
71959;SDS011;59832;51.146;14.024;2023-08-07T01:28:47;5.53;;;5.13;;
71959;SDS011;59832;51.146;14.024;2023-08-07T01:31:21;5.07;;;4.20;;
71959;SDS011;59832;51.146;14.024;2023-08-07T01:33:52;4.82;;;4.43;;
71959;SDS011;59832;51.146;14.024;2023-08-07T01:36:22;4.45;;;4.15;;
71959;SDS011;59832;51.146;14.024;2023-08-07T01:38:51;4.65;;;4.32;;
71959;SDS011;59832;51.146;14.024;2023-08-07T01:41:20;5.50;;;3.70;;
71959;SDS011;59832;51.146;14.024;2023-08-07T01:43:46;4.72;;;3.90;;
71959;SDS011;59832;51.146;14.024;2023-08-07T01:46:13;2.47;;;2.10;;
71959;SDS011;59832;51.146;14.024;2023-08-07T01:48:39;3.30;;;2.50;;
71959;SDS011;59832;51.146;14.024;2023-08-07T01:51:06;3.15;;;2.85;;
71959;SDS011;59832;51.146;14.024;2023-08-07T01:53:32;3.10;;;2.80;;
71959;SDS011;59832;51.146;14.024;2023-08-07T01:55:59;2.97;;;2.78;;
71959;SDS011;59832;51.146;14.024;2023-08-07T01:58:25;3.58;;;3.20;;
71959;SDS011;59832;51.146;14.024;2023-08-07T02:00:52;3.25;;;2.95;;
71959;SDS011;59832;51.146;14.024;2023-08-07T02:03:19;3.47;;;2.90;;
71959;SDS011;59832;51.146;14.024;2023-08-07T02:05:46;3.05;;;2.85;;
71959;SDS011;59832;51.146;14.024;2023-08-07T02:08:13;3.97;;;2.80;;
71959;SDS011;59832;51.146;14.024;2023-08-07T02:10:40;3.55;;;3.20;;
71959;SDS011;59832;51.146;14.024;2023-08-07T02:13:07;4.32;;;3.28;;
71959;SDS011;59832;51.146;14.024;2023-08-07T02:15:34;3.75;;;3.45;;
71959;SDS011;59832;51.146;14.024;2023-08-07T02:18:01;3.85;;;3.55;;
71959;SDS011;59832;51.146;14.024;2023-08-07T02:20:27;4.00;;;3.60;;
71959;SDS011;59832;51.146;14.024;2023-08-07T02:22:54;4.38;;;4.07;;
71959;SDS011;59832;51.146;14.024;2023-08-07T02:25:20;3.88;;;3.58;;
71959;SDS011;59832;51.146;14.024;2023-08-07T02:27:47;4.50;;;4.00;;
71959;SDS011;59832;51.146;14.024;2023-08-07T02:30:13;6.28;;;4.18;;
71959;SDS011;59832;51.146;14.024;2023-08-07T02:32:39;4.93;;;4.53;;
71959;SDS011;59832;51.146;14.024;2023-08-07T02:35:08;5.53;;;5.10;;
71959;SDS011;59832;51.146;14.024;2023-08-07T02:37:35;5.57;;;5.05;;
71959;SDS011;59832;51.146;14.024;2023-08-07T02:40:01;6.15;;;5.60;;
71959;SDS011;59832;51.146;14.024;2023-08-07T02:42:28;7.40;;;6.22;;
71959;SDS011;59832;51.146;14.024;2023-08-07T02:44:54;6.65;;;6.05;;
71959;SDS011;59832;51.146;14.024;2023-08-07T02:47:21;6.63;;;6.05;;
71959;SDS011;59832;51.146;14.024;2023-08-07T02:49:47;10.20;;;6.13;;
71959;SDS011;59832;51.146;14.024;2023-08-07T02:52:14;6.97;;;6.38;;
71959;SDS011;59832;51.146;14.024;2023-08-07T02:54:40;8.27;;;7.07;;
71959;SDS011;59832;51.146;14.024;2023-08-07T02:57:07;8.45;;;7.65;;
71959;SDS011;59832;51.146;14.024;2023-08-07T02:59:33;8.38;;;7.60;;
71959;SDS011;59832;51.146;14.024;2023-08-07T03:01:59;9.27;;;8.48;;
71959;SDS011;59832;51.146;14.024;2023-08-07T03:04:26;9.48;;;8.60;;
71959;SDS011;59832;51.146;14.024;2023-08-07T03:06:52;10.65;;;9.57;;
71959;SDS011;59832;51.146;14.024;2023-08-07T03:09:20;9.48;;;8.57;;
71959;SDS011;59832;51.146;14.024;2023-08-07T03:11:46;11.45;;;9.15;;
71959;SDS011;59832;51.146;14.024;2023-08-07T03:14:12;13.50;;;10.27;;
71959;SDS011;59832;51.146;14.024;2023-08-07T03:16:39;12.15;;;10.00;;
71959;SDS011;59832;51.146;14.024;2023-08-07T03:19:05;10.68;;;9.45;;
71959;SDS011;59832;51.146;14.024;2023-08-07T03:21:32;8.43;;;7.63;;
71959;SDS011;59832;51.146;14.024;2023-08-07T03:23:58;8.30;;;7.45;;
71959;SDS011;59832;51.146;14.024;2023-08-07T03:26:25;7.13;;;6.43;;
71959;SDS011;59832;51.146;14.024;2023-08-07T03:28:51;6.30;;;5.80;;
71959;SDS011;59832;51.146;14.024;2023-08-07T03:31:18;7.38;;;5.90;;
71959;SDS011;59832;51.146;14.024;2023-08-07T03:33:44;6.63;;;5.57;;
71959;SDS011;59832;51.146;14.024;2023-08-07T03:36:11;5.50;;;5.10;;
71959;SDS011;59832;51.146;14.024;2023-08-07T03:38:37;6.10;;;5.53;;
71959;SDS011;59832;51.146;14.024;2023-08-07T03:41:04;6.43;;;5.83;;
71959;SDS011;59832;51.146;14.024;2023-08-07T03:43:30;5.90;;;5.27;;
71959;SDS011;59832;51.146;14.024;2023-08-07T03:45:57;5.90;;;5.40;;
71959;SDS011;59832;51.146;14.024;2023-08-07T03:48:28;5.15;;;4.70;;
71959;SDS011;59832;51.146;14.024;2023-08-07T03:51:01;5.13;;;4.70;;
71959;SDS011;59832;51.146;14.024;2023-08-07T03:53:29;6.60;;;5.20;;
71959;SDS011;59832;51.146;14.024;2023-08-07T03:55:55;7.25;;;5.75;;
71959;SDS011;59832;51.146;14.024;2023-08-07T03:58:22;5.85;;;5.35;;
71959;SDS011;59832;51.146;14.024;2023-08-07T04:00:50;6.20;;;5.25;;
71959;SDS011;59832;51.146;14.024;2023-08-07T04:03:18;5.95;;;5.45;;
71959;SDS011;59832;51.146;14.024;2023-08-07T04:05:45;7.63;;;5.82;;
71959;SDS011;59832;51.146;14.024;2023-08-07T04:08:12;7.22;;;5.80;;
71959;SDS011;59832;51.146;14.024;2023-08-07T04:10:38;6.68;;;5.70;;
71959;SDS011;59832;51.146;14.024;2023-08-07T04:13:05;7.00;;;6.30;;
71959;SDS011;59832;51.146;14.024;2023-08-07T04:15:31;6.65;;;5.60;;
71959;SDS011;59832;51.146;14.024;2023-08-07T04:17:57;9.30;;;5.63;;
71959;SDS011;59832;51.146;14.024;2023-08-07T04:20:24;6.03;;;5.30;;
71959;SDS011;59832;51.146;14.024;2023-08-07T04:22:51;6.95;;;5.93;;
71959;SDS011;59832;51.146;14.024;2023-08-07T04:25:17;7.20;;;6.45;;
71959;SDS011;59832;51.146;14.024;2023-08-07T04:27:43;6.75;;;6.07;;
71959;SDS011;59832;51.146;14.024;2023-08-07T04:30:10;6.55;;;5.75;;
71959;SDS011;59832;51.146;14.024;2023-08-07T04:32:37;6.43;;;5.82;;
71959;SDS011;59832;51.146;14.024;2023-08-07T04:35:03;7.97;;;6.40;;
71959;SDS011;59832;51.146;14.024;2023-08-07T04:37:31;9.63;;;7.10;;
71959;SDS011;59832;51.146;14.024;2023-08-07T04:39:57;9.27;;;7.10;;
71959;SDS011;59832;51.146;14.024;2023-08-07T04:42:24;10.30;;;8.02;;
71959;SDS011;59832;51.146;14.024;2023-08-07T04:44:50;11.20;;;8.65;;
71959;SDS011;59832;51.146;14.024;2023-08-07T04:47:16;17.08;;;9.88;;
71959;SDS011;59832;51.146;14.024;2023-08-07T04:49:43;16.92;;;10.23;;
71959;SDS011;59832;51.146;14.024;2023-08-07T04:52:09;13.90;;;10.30;;
71959;SDS011;59832;51.146;14.024;2023-08-07T04:54:51;11.68;;;9.88;;
71959;SDS011;59832;51.146;14.024;2023-08-07T04:57:18;14.98;;;11.05;;
71959;SDS011;59832;51.146;14.024;2023-08-07T04:59:44;14.93;;;11.57;;
71959;SDS011;59832;51.146;14.024;2023-08-07T05:02:11;17.60;;;12.65;;
71959;SDS011;59832;51.146;14.024;2023-08-07T05:04:38;19.63;;;13.43;;
71959;SDS011;59832;51.146;14.024;2023-08-07T05:07:04;17.67;;;14.17;;
71959;SDS011;59832;51.146;14.024;2023-08-07T05:09:31;21.40;;;14.70;;
71959;SDS011;59832;51.146;14.024;2023-08-07T05:11:57;25.48;;;16.38;;
71959;SDS011;59832;51.146;14.024;2023-08-07T05:14:24;22.27;;;15.77;;
71959;SDS011;59832;51.146;14.024;2023-08-07T05:16:50;25.17;;;16.08;;
71959;SDS011;59832;51.146;14.024;2023-08-07T05:19:17;23.77;;;16.63;;
71959;SDS011;59832;51.146;14.024;2023-08-07T05:21:43;23.83;;;16.85;;
71959;SDS011;59832;51.146;14.024;2023-08-07T05:24:10;23.15;;;17.15;;
71959;SDS011;59832;51.146;14.024;2023-08-07T05:26:36;25.23;;;17.10;;
71959;SDS011;59832;51.146;14.024;2023-08-07T05:29:02;24.48;;;17.33;;
71959;SDS011;59832;51.146;14.024;2023-08-07T05:31:30;22.13;;;16.95;;
71959;SDS011;59832;51.146;14.024;2023-08-07T05:33:57;24.10;;;16.90;;
71959;SDS011;59832;51.146;14.024;2023-08-07T05:36:23;22.23;;;15.73;;
71959;SDS011;59832;51.146;14.024;2023-08-07T05:38:50;23.93;;;16.97;;
71959;SDS011;59832;51.146;14.024;2023-08-07T05:41:16;19.70;;;15.57;;
71959;SDS011;59832;51.146;14.024;2023-08-07T05:43:43;25.92;;;16.88;;
71959;SDS011;59832;51.146;14.024;2023-08-07T05:46:09;24.30;;;16.25;;
71959;SDS011;59832;51.146;14.024;2023-08-07T05:48:36;22.93;;;16.67;;
71959;SDS011;59832;51.146;14.024;2023-08-07T05:51:02;21.73;;;16.13;;
71959;SDS011;59832;51.146;14.024;2023-08-07T05:53:29;21.10;;;15.80;;
71959;SDS011;59832;51.146;14.024;2023-08-07T05:55:56;17.07;;;15.13;;
71959;SDS011;59832;51.146;14.024;2023-08-07T05:58:22;18.93;;;14.33;;
71959;SDS011;59832;51.146;14.024;2023-08-07T06:00:49;17.77;;;14.80;;
71959;SDS011;59832;51.146;14.024;2023-08-07T06:03:15;19.87;;;14.70;;
71959;SDS011;59832;51.146;14.024;2023-08-07T06:05:42;16.10;;;12.32;;
71959;SDS011;59832;51.146;14.024;2023-08-07T06:08:08;15.40;;;12.00;;
71959;SDS011;59832;51.146;14.024;2023-08-07T06:10:34;15.80;;;12.80;;
71959;SDS011;59832;51.146;14.024;2023-08-07T06:13:01;17.02;;;13.65;;
71959;SDS011;59832;51.146;14.024;2023-08-07T06:15:29;13.40;;;11.98;;
71959;SDS011;59832;51.146;14.024;2023-08-07T06:17:56;13.50;;;11.73;;
71959;SDS011;59832;51.146;14.024;2023-08-07T06:20:22;14.93;;;11.40;;
71959;SDS011;59832;51.146;14.024;2023-08-07T06:22:49;13.05;;;10.60;;
71959;SDS011;59832;51.146;14.024;2023-08-07T06:25:15;12.02;;;9.80;;
71959;SDS011;59832;51.146;14.024;2023-08-07T06:27:42;10.73;;;9.73;;
71959;SDS011;59832;51.146;14.024;2023-08-07T06:30:08;9.88;;;9.02;;
71959;SDS011;59832;51.146;14.024;2023-08-07T06:32:35;9.32;;;8.43;;
71959;SDS011;59832;51.146;14.024;2023-08-07T06:35:03;14.27;;;9.32;;
71959;SDS011;59832;51.146;14.024;2023-08-07T06:37:30;13.85;;;9.32;;
71959;SDS011;59832;51.146;14.024;2023-08-07T06:39:57;9.40;;;8.60;;
71959;SDS011;59832;51.146;14.024;2023-08-07T06:42:24;10.13;;;8.63;;
71959;SDS011;59832;51.146;14.024;2023-08-07T06:44:50;9.88;;;8.90;;
71959;SDS011;59832;51.146;14.024;2023-08-07T06:47:17;9.30;;;8.27;;
71959;SDS011;59832;51.146;14.024;2023-08-07T06:49:43;10.85;;;8.35;;
71959;SDS011;59832;51.146;14.024;2023-08-07T06:52:10;8.98;;;8.07;;
71959;SDS011;59832;51.146;14.024;2023-08-07T06:54:36;8.57;;;7.77;;
71959;SDS011;59832;51.146;14.024;2023-08-07T06:57:03;7.60;;;6.90;;
71959;SDS011;59832;51.146;14.024;2023-08-07T06:59:30;7.63;;;6.88;;
71959;SDS011;59832;51.146;14.024;2023-08-07T07:01:56;6.65;;;6.05;;
71959;SDS011;59832;51.146;14.024;2023-08-07T07:04:23;6.70;;;5.95;;
71959;SDS011;59832;51.146;14.024;2023-08-07T07:06:49;6.65;;;6.15;;
71959;SDS011;59832;51.146;14.024;2023-08-07T07:09:16;8.97;;;5.63;;
71959;SDS011;59832;51.146;14.024;2023-08-07T07:11:43;6.80;;;6.05;;
71959;SDS011;59832;51.146;14.024;2023-08-07T07:14:10;6.45;;;5.47;;
71959;SDS011;59832;51.146;14.024;2023-08-07T07:16:37;7.00;;;5.75;;
71959;SDS011;59832;51.146;14.024;2023-08-07T07:19:04;5.85;;;4.68;;
71959;SDS011;59832;51.146;14.024;2023-08-07T07:21:34;5.18;;;4.72;;
71959;SDS011;59832;51.146;14.024;2023-08-07T07:24:04;5.35;;;4.28;;
71959;SDS011;59832;51.146;14.024;2023-08-07T07:26:31;6.78;;;4.72;;
71959;SDS011;59832;51.146;14.024;2023-08-07T07:28:57;4.83;;;4.53;;
71959;SDS011;59832;51.146;14.024;2023-08-07T07:31:24;4.77;;;4.37;;
71959;SDS011;59832;51.146;14.024;2023-08-07T07:33:50;4.63;;;4.20;;
71959;SDS011;59832;51.146;14.024;2023-08-07T07:36:17;4.30;;;4.00;;
71959;SDS011;59832;51.146;14.024;2023-08-07T07:38:45;4.55;;;4.25;;
71959;SDS011;59832;51.146;14.024;2023-08-07T07:41:16;4.70;;;4.30;;
71959;SDS011;59832;51.146;14.024;2023-08-07T07:43:44;4.47;;;4.03;;
71959;SDS011;59832;51.146;14.024;2023-08-07T07:46:12;5.03;;;4.03;;
71959;SDS011;59832;51.146;14.024;2023-08-07T07:48:39;4.43;;;4.03;;
71959;SDS011;59832;51.146;14.024;2023-08-07T07:51:05;3.65;;;3.35;;
71959;SDS011;59832;51.146;14.024;2023-08-07T07:53:32;4.63;;;3.80;;
71959;SDS011;59832;51.146;14.024;2023-08-07T07:55:58;4.03;;;3.73;;
71959;SDS011;59832;51.146;14.024;2023-08-07T07:58:25;4.40;;;3.53;;
71959;SDS011;59832;51.146;14.024;2023-08-07T08:00:51;4.38;;;3.60;;
71959;SDS011;59832;51.146;14.024;2023-08-07T08:03:20;3.90;;;3.60;;
71959;SDS011;59832;51.146;14.024;2023-08-07T08:05:50;3.70;;;3.40;;
71959;SDS011;59832;51.146;14.024;2023-08-07T08:08:18;4.18;;;3.17;;
71959;SDS011;59832;51.146;14.024;2023-08-07T08:10:45;3.53;;;3.22;;
71959;SDS011;59832;51.146;14.024;2023-08-07T08:13:16;3.40;;;3.00;;
71959;SDS011;59832;51.146;14.024;2023-08-07T08:15:44;5.18;;;2.75;;
71959;SDS011;59832;51.146;14.024;2023-08-07T08:18:11;2.95;;;2.28;;
71959;SDS011;59832;51.146;14.024;2023-08-07T08:20:38;2.25;;;2.10;;
71959;SDS011;59832;51.146;14.024;2023-08-07T08:23:05;2.85;;;2.50;;
71959;SDS011;59832;51.146;14.024;2023-08-07T08:25:31;2.25;;;2.05;;
71959;SDS011;59832;51.146;14.024;2023-08-07T08:27:59;2.45;;;2.05;;
71959;SDS011;59832;51.146;14.024;2023-08-07T08:30:26;3.50;;;1.90;;
71959;SDS011;59832;51.146;14.024;2023-08-07T08:32:54;2.17;;;1.85;;
71959;SDS011;59832;51.146;14.024;2023-08-07T08:35:20;3.08;;;1.98;;
71959;SDS011;59832;51.146;14.024;2023-08-07T08:37:47;2.47;;;2.00;;
71959;SDS011;59832;51.146;14.024;2023-08-07T08:40:13;2.65;;;1.60;;
71959;SDS011;59832;51.146;14.024;2023-08-07T08:42:44;1.60;;;1.50;;
71959;SDS011;59832;51.146;14.024;2023-08-07T08:45:12;1.67;;;1.58;;
71959;SDS011;59832;51.146;14.024;2023-08-07T08:47:40;1.50;;;1.40;;
71959;SDS011;59832;51.146;14.024;2023-08-07T08:50:11;2.42;;;1.60;;
71959;SDS011;59832;51.146;14.024;2023-08-07T08:52:44;3.53;;;1.80;;
71959;SDS011;59832;51.146;14.024;2023-08-07T08:55:12;2.28;;;1.40;;
71959;SDS011;59832;51.146;14.024;2023-08-07T08:57:39;2.50;;;1.50;;
71959;SDS011;59832;51.146;14.024;2023-08-07T09:00:06;1.65;;;1.45;;
71959;SDS011;59832;51.146;14.024;2023-08-07T09:02:44;2.25;;;1.33;;
71959;SDS011;59832;51.146;14.024;2023-08-07T09:05:11;2.70;;;2.50;;
71959;SDS011;59832;51.146;14.024;2023-08-07T09:07:38;2.00;;;1.80;;
71959;SDS011;59832;51.146;14.024;2023-08-07T09:10:05;1.40;;;1.30;;
71959;SDS011;59832;51.146;14.024;2023-08-07T09:12:32;2.10;;;1.77;;
71959;SDS011;59832;51.146;14.024;2023-08-07T09:15:02;1.98;;;1.30;;
71959;SDS011;59832;51.146;14.024;2023-08-07T09:17:33;2.72;;;1.60;;
71959;SDS011;59832;51.146;14.024;2023-08-07T09:20:04;1.75;;;1.50;;
71959;SDS011;59832;51.146;14.024;2023-08-07T09:22:33;3.92;;;1.52;;
71959;SDS011;59832;51.146;14.024;2023-08-07T09:24:59;1.50;;;1.40;;
71959;SDS011;59832;51.146;14.024;2023-08-07T09:27:26;1.63;;;1.52;;
71959;SDS011;59832;51.146;14.024;2023-08-07T09:29:54;1.48;;;1.38;;
71959;SDS011;59832;51.146;14.024;2023-08-07T09:32:21;1.33;;;1.23;;
71959;SDS011;59832;51.146;14.024;2023-08-07T09:34:50;1.27;;;1.10;;
71959;SDS011;59832;51.146;14.024;2023-08-07T09:37:22;1.15;;;1.13;;
71959;SDS011;59832;51.146;14.024;2023-08-07T09:39:49;2.05;;;1.40;;
71959;SDS011;59832;51.146;14.024;2023-08-07T09:42:17;2.05;;;1.10;;
71959;SDS011;59832;51.146;14.024;2023-08-07T09:44:43;4.77;;;1.13;;
71959;SDS011;59832;51.146;14.024;2023-08-07T09:47:15;1.33;;;1.00;;
71959;SDS011;59832;51.146;14.024;2023-08-07T09:49:43;2.40;;;1.10;;
71959;SDS011;59832;51.146;14.024;2023-08-07T09:52:11;3.10;;;1.10;;
71959;SDS011;59832;51.146;14.024;2023-08-07T09:54:42;2.30;;;1.17;;
71959;SDS011;59832;51.146;14.024;2023-08-07T09:57:08;1.00;;;0.88;;
71959;SDS011;59832;51.146;14.024;2023-08-07T09:59:35;1.85;;;0.80;;
71959;SDS011;59832;51.146;14.024;2023-08-07T10:02:02;2.53;;;0.90;;
71959;SDS011;59832;51.146;14.024;2023-08-07T10:04:29;1.08;;;0.98;;
71959;SDS011;59832;51.146;14.024;2023-08-07T10:06:57;0.98;;;0.80;;
71959;SDS011;59832;51.146;14.024;2023-08-07T10:09:24;1.20;;;0.90;;
71959;SDS011;59832;51.146;14.024;2023-08-07T10:11:53;0.95;;;0.88;;
71959;SDS011;59832;51.146;14.024;2023-08-07T10:14:20;1.90;;;0.90;;
71959;SDS011;59832;51.146;14.024;2023-08-07T10:16:48;1.45;;;1.00;;
71959;SDS011;59832;51.146;14.024;2023-08-07T10:19:15;2.75;;;0.98;;
71959;SDS011;59832;51.146;14.024;2023-08-07T10:21:41;1.30;;;0.85;;
71959;SDS011;59832;51.146;14.024;2023-08-07T10:24:10;1.90;;;1.00;;
71959;SDS011;59832;51.146;14.024;2023-08-07T10:26:41;1.23;;;0.90;;
71959;SDS011;59832;51.146;14.024;2023-08-07T10:29:10;1.98;;;1.00;;
71959;SDS011;59832;51.146;14.024;2023-08-07T10:31:39;1.15;;;0.90;;
71959;SDS011;59832;51.146;14.024;2023-08-07T10:34:09;0.98;;;0.80;;
71959;SDS011;59832;51.146;14.024;2023-08-07T10:36:36;0.80;;;0.80;;
71959;SDS011;59832;51.146;14.024;2023-08-07T10:39:08;2.22;;;1.27;;
71959;SDS011;59832;51.146;14.024;2023-08-07T10:41:44;3.28;;;1.40;;
71959;SDS011;59832;51.146;14.024;2023-08-07T10:44:18;1.50;;;1.40;;
71959;SDS011;59832;51.146;14.024;2023-08-07T10:46:47;2.08;;;1.48;;
71959;SDS011;59832;51.146;14.024;2023-08-07T10:49:43;1.83;;;1.73;;
71959;SDS011;59832;51.146;14.024;2023-08-07T10:52:11;1.30;;;1.20;;
71959;SDS011;59832;51.146;14.024;2023-08-07T10:55:00;1.80;;;1.48;;
71959;SDS011;59832;51.146;14.024;2023-08-07T10:57:25;1.85;;;1.50;;
71959;SDS011;59832;51.146;14.024;2023-08-07T11:02:29;2.95;;;1.50;;
71959;SDS011;59832;51.146;14.024;2023-08-07T11:04:56;1.77;;;1.30;;
71959;SDS011;59832;51.146;14.024;2023-08-07T11:07:27;1.77;;;1.17;;
71959;SDS011;59832;51.146;14.024;2023-08-07T11:09:56;1.48;;;1.30;;
71959;SDS011;59832;51.146;14.024;2023-08-07T11:12:24;1.20;;;1.10;;
71959;SDS011;59832;51.146;14.024;2023-08-07T11:14:55;3.85;;;1.58;;
71959;SDS011;59832;51.146;14.024;2023-08-07T11:17:25;1.50;;;1.40;;
71959;SDS011;59832;51.146;14.024;2023-08-07T11:19:53;1.70;;;1.60;;
71959;SDS011;59832;51.146;14.024;2023-08-07T11:22:21;2.25;;;1.80;;
71959;SDS011;59832;51.146;14.024;2023-08-07T11:24:48;2.25;;;1.88;;
71959;SDS011;59832;51.146;14.024;2023-08-07T11:27:16;3.40;;;1.92;;
71959;SDS011;59832;51.146;14.024;2023-08-07T11:29:47;5.35;;;2.38;;
71959;SDS011;59832;51.146;14.024;2023-08-07T11:32:14;2.15;;;1.65;;
71959;SDS011;59832;51.146;14.024;2023-08-07T11:34:47;1.70;;;1.60;;
71959;SDS011;59832;51.146;14.024;2023-08-07T11:37:17;1.75;;;1.65;;
71959;SDS011;59832;51.146;14.024;2023-08-07T11:39:44;1.63;;;1.30;;
71959;SDS011;59832;51.146;14.024;2023-08-07T11:42:10;2.05;;;1.10;;
71959;SDS011;59832;51.146;14.024;2023-08-07T11:44:37;1.25;;;1.00;;
71959;SDS011;59832;51.146;14.024;2023-08-07T11:47:04;1.40;;;1.40;;
71959;SDS011;59832;51.146;14.024;2023-08-07T11:49:31;2.10;;;1.20;;
71959;SDS011;59832;51.146;14.024;2023-08-07T11:51:58;1.55;;;1.40;;
71959;SDS011;59832;51.146;14.024;2023-08-07T11:54:25;3.13;;;1.23;;
71959;SDS011;59832;51.146;14.024;2023-08-07T11:56:52;1.38;;;1.10;;
71959;SDS011;59832;51.146;14.024;2023-08-07T11:59:19;0.93;;;0.93;;
71959;SDS011;59832;51.146;14.024;2023-08-07T12:01:45;1.05;;;0.98;;
71959;SDS011;59832;51.146;14.024;2023-08-07T12:04:12;1.02;;;0.90;;
71959;SDS011;59832;51.146;14.024;2023-08-07T12:06:45;0.95;;;0.95;;
71959;SDS011;59832;51.146;14.024;2023-08-07T12:09:18;1.00;;;1.00;;
71959;SDS011;59832;51.146;14.024;2023-08-07T12:11:45;1.50;;;1.40;;
71959;SDS011;59832;51.146;14.024;2023-08-07T12:14:14;1.07;;;1.00;;
71959;SDS011;59832;51.146;14.024;2023-08-07T12:16:44;3.47;;;1.40;;
71959;SDS011;59832;51.146;14.024;2023-08-07T12:19:14;1.98;;;1.10;;
71959;SDS011;59832;51.146;14.024;2023-08-07T12:21:41;1.10;;;1.00;;
71959;SDS011;59832;51.146;14.024;2023-08-07T12:24:08;1.27;;;1.27;;
71959;SDS011;59832;51.146;14.024;2023-08-07T12:26:34;2.00;;;1.25;;
71959;SDS011;59832;51.146;14.024;2023-08-07T12:29:01;3.10;;;1.05;;
71959;SDS011;59832;51.146;14.024;2023-08-07T12:31:27;0.80;;;0.80;;
71959;SDS011;59832;51.146;14.024;2023-08-07T12:33:54;1.00;;;1.00;;
71959;SDS011;59832;51.146;14.024;2023-08-07T12:36:21;0.80;;;0.80;;
71959;SDS011;59832;51.146;14.024;2023-08-07T12:38:47;2.50;;;1.20;;
71959;SDS011;59832;51.146;14.024;2023-08-07T12:41:14;1.00;;;0.93;;
71959;SDS011;59832;51.146;14.024;2023-08-07T12:43:44;1.02;;;0.80;;
71959;SDS011;59832;51.146;14.024;2023-08-07T12:46:10;2.83;;;0.82;;
71959;SDS011;59832;51.146;14.024;2023-08-07T12:48:39;0.70;;;0.70;;
71959;SDS011;59832;51.146;14.024;2023-08-07T12:51:06;0.67;;;0.67;;
71959;SDS011;59832;51.146;14.024;2023-08-07T12:53:33;0.80;;;0.80;;
71959;SDS011;59832;51.146;14.024;2023-08-07T12:55:59;0.70;;;0.70;;
71959;SDS011;59832;51.146;14.024;2023-08-07T12:58:26;1.23;;;0.77;;
71959;SDS011;59832;51.146;14.024;2023-08-07T13:00:55;1.45;;;0.70;;
71959;SDS011;59832;51.146;14.024;2023-08-07T13:03:22;1.38;;;0.85;;
71959;SDS011;59832;51.146;14.024;2023-08-07T13:05:48;1.48;;;0.90;;
71959;SDS011;59832;51.146;14.024;2023-08-07T13:08:15;1.03;;;0.90;;
71959;SDS011;59832;51.146;14.024;2023-08-07T13:10:41;0.50;;;0.50;;
71959;SDS011;59832;51.146;14.024;2023-08-07T13:13:08;0.85;;;0.85;;
71959;SDS011;59832;51.146;14.024;2023-08-07T13:15:34;0.77;;;0.77;;
71959;SDS011;59832;51.146;14.024;2023-08-07T13:18:01;2.05;;;0.60;;
71959;SDS011;59832;51.146;14.024;2023-08-07T13:20:27;2.20;;;0.70;;
71959;SDS011;59832;51.146;14.024;2023-08-07T13:22:59;0.70;;;0.70;;
71959;SDS011;59832;51.146;14.024;2023-08-07T13:25:27;1.95;;;0.40;;
71959;SDS011;59832;51.146;14.024;2023-08-07T13:27:53;0.63;;;0.63;;
71959;SDS011;59832;51.146;14.024;2023-08-07T13:30:20;1.13;;;0.50;;
71959;SDS011;59832;51.146;14.024;2023-08-07T13:32:46;0.60;;;0.60;;
71959;SDS011;59832;51.146;14.024;2023-08-07T13:35:13;0.52;;;0.50;;
71959;SDS011;59832;51.146;14.024;2023-08-07T13:37:39;3.30;;;0.80;;
71959;SDS011;59832;51.146;14.024;2023-08-07T13:40:06;0.50;;;0.40;;
71959;SDS011;59832;51.146;14.024;2023-08-07T13:42:33;0.93;;;0.50;;
71959;SDS011;59832;51.146;14.024;2023-08-07T13:44:59;0.50;;;0.50;;
71959;SDS011;59832;51.146;14.024;2023-08-07T13:47:26;0.87;;;0.50;;
71959;SDS011;59832;51.146;14.024;2023-08-07T13:49:53;0.65;;;0.65;;
71959;SDS011;59832;51.146;14.024;2023-08-07T13:52:24;0.95;;;0.73;;
71959;SDS011;59832;51.146;14.024;2023-08-07T13:54:50;2.83;;;0.98;;
71959;SDS011;59832;51.146;14.024;2023-08-07T13:57:17;0.93;;;0.80;;
71959;SDS011;59832;51.146;14.024;2023-08-07T13:59:43;3.50;;;0.80;;
71959;SDS011;59832;51.146;14.024;2023-08-07T14:02:10;0.80;;;0.80;;
71959;SDS011;59832;51.146;14.024;2023-08-07T14:04:36;0.87;;;0.70;;
71959;SDS011;59832;51.146;14.024;2023-08-07T14:07:03;0.90;;;0.90;;
71959;SDS011;59832;51.146;14.024;2023-08-07T14:11:57;0.60;;;0.60;;
71959;SDS011;59832;51.146;14.024;2023-08-07T14:14:24;1.80;;;0.80;;
71959;SDS011;59832;51.146;14.024;2023-08-07T14:16:51;1.13;;;0.73;;
71959;SDS011;59832;51.146;14.024;2023-08-07T14:19:17;0.95;;;0.75;;
71959;SDS011;59832;51.146;14.024;2023-08-07T14:21:44;1.90;;;1.17;;
71959;SDS011;59832;51.146;14.024;2023-08-07T14:24:10;0.80;;;0.67;;
71959;SDS011;59832;51.146;14.024;2023-08-07T14:26:37;1.23;;;0.80;;
71959;SDS011;59832;51.146;14.024;2023-08-07T14:29:03;0.70;;;0.60;;
71959;SDS011;59832;51.146;14.024;2023-08-07T14:31:30;1.07;;;0.70;;
71959;SDS011;59832;51.146;14.024;2023-08-07T14:33:56;1.73;;;0.80;;
71959;SDS011;59832;51.146;14.024;2023-08-07T14:36:23;0.68;;;0.60;;
71959;SDS011;59832;51.146;14.024;2023-08-07T14:38:49;1.13;;;0.83;;
71959;SDS011;59832;51.146;14.024;2023-08-07T14:41:17;1.52;;;0.73;;
71959;SDS011;59832;51.146;14.024;2023-08-07T14:43:44;0.85;;;0.70;;
71959;SDS011;59832;51.146;14.024;2023-08-07T14:48:38;0.68;;;0.60;;